sensor_id;sensor_type;location;lat;lon;timestamp;pressure;altitude;pressure_sealevel;temperature;humidity
59190;BME280;50749;51.636;4.948;2023-02-02T00:01:28;102228.63;;;17.26;48.32
59190;BME280;50749;51.636;4.948;2023-02-02T00:03:55;102228.63;;;17.26;48.33
59190;BME280;50749;51.636;4.948;2023-02-02T00:06:26;102228.47;;;17.22;48.15
59190;BME280;50749;51.636;4.948;2023-02-02T00:08:54;102224.91;;;17.22;48.04
59190;BME280;50749;51.636;4.948;2023-02-02T00:11:21;102221.28;;;17.21;48.24
59190;BME280;50749;51.636;4.948;2023-02-02T00:13:47;102233.50;;;17.20;48.55
59190;BME280;50749;51.636;4.948;2023-02-02T00:18:55;102216.13;;;17.20;48.19
59190;BME280;50749;51.636;4.948;2023-02-02T00:21:21;102214.47;;;17.19;48.07
59190;BME280;50749;51.636;4.948;2023-02-02T00:23:47;102217.56;;;17.17;48.51
59190;BME280;50749;51.636;4.948;2023-02-02T00:26:13;102218.34;;;17.18;48.20
59190;BME280;50749;51.636;4.948;2023-02-02T00:28:39;102226.16;;;17.16;48.37
59190;BME280;50749;51.636;4.948;2023-02-02T00:31:05;102230.88;;;17.15;48.23
59190;BME280;50749;51.636;4.948;2023-02-02T00:33:31;102223.72;;;17.14;48.35
59190;BME280;50749;51.636;4.948;2023-02-02T00:35:57;102228.44;;;17.14;48.36
59190;BME280;50749;51.636;4.948;2023-02-02T00:38:23;102239.50;;;17.14;48.48
59190;BME280;50749;51.636;4.948;2023-02-02T00:40:48;102235.41;;;17.11;48.57
59190;BME280;50749;51.636;4.948;2023-02-02T00:43:14;102245.66;;;17.11;48.11
59190;BME280;50749;51.636;4.948;2023-02-02T00:45:40;102236.25;;;17.12;48.46
59190;BME280;50749;51.636;4.948;2023-02-02T00:48:06;102245.66;;;17.11;48.28
59190;BME280;50749;51.636;4.948;2023-02-02T00:50:32;102248.72;;;17.09;48.18
59190;BME280;50749;51.636;4.948;2023-02-02T00:52:58;102251.81;;;17.07;48.14
59190;BME280;50749;51.636;4.948;2023-02-02T00:55:25;102252.97;;;17.06;48.50
59190;BME280;50749;51.636;4.948;2023-02-02T00:57:51;102258.47;;;17.06;48.35
59190;BME280;50749;51.636;4.948;2023-02-02T01:00:19;102259.59;;;17.05;48.24
59190;BME280;50749;51.636;4.948;2023-02-02T01:02:52;102251.63;;;17.04;48.33
59190;BME280;50749;51.636;4.948;2023-02-02T01:05:18;102255.50;;;17.03;48.40
59190;BME280;50749;51.636;4.948;2023-02-02T01:07:45;102248.38;;;17.02;48.18
59190;BME280;50749;51.636;4.948;2023-02-02T01:10:15;102254.72;;;17.02;48.45
59190;BME280;50749;51.636;4.948;2023-02-02T01:12:42;102243.16;;;17.00;48.24
59190;BME280;50749;51.636;4.948;2023-02-02T01:15:10;102254.22;;;17.00;48.47
59190;BME280;50749;51.636;4.948;2023-02-02T01:17:37;102247.06;;;16.99;48.38
59190;BME280;50749;51.636;4.948;2023-02-02T01:20:04;102249.81;;;16.99;48.33
59190;BME280;50749;51.636;4.948;2023-02-02T01:22:30;102243.47;;;16.99;48.38
59190;BME280;50749;51.636;4.948;2023-02-02T01:24:58;102248.19;;;16.98;48.37
59190;BME280;50749;51.636;4.948;2023-02-02T01:27:24;102243.78;;;16.97;48.29
59190;BME280;50749;51.636;4.948;2023-02-02T01:29:50;102247.06;;;16.99;48.29
59190;BME280;50749;51.636;4.948;2023-02-02T01:32:16;102249.31;;;16.97;48.29
59190;BME280;50749;51.636;4.948;2023-02-02T01:34:42;102257.59;;;16.97;48.23
59190;BME280;50749;51.636;4.948;2023-02-02T01:37:08;102254.84;;;16.97;48.20
59190;BME280;50749;51.636;4.948;2023-02-02T01:39:35;102251.59;;;16.95;48.35
59190;BME280;50749;51.636;4.948;2023-02-02T01:42:01;102251.09;;;16.93;48.37
59190;BME280;50749;51.636;4.948;2023-02-02T01:47:32;102248.66;;;16.92;48.24
59190;BME280;50749;51.636;4.948;2023-02-02T01:49:59;102243.13;;;16.92;48.23
59190;BME280;50749;51.636;4.948;2023-02-02T01:52:27;102238.41;;;16.92;48.16
59190;BME280;50749;51.636;4.948;2023-02-02T01:55:01;102239.22;;;16.93;48.38
59190;BME280;50749;51.636;4.948;2023-02-02T02:00:00;102239.53;;;16.91;48.47
59190;BME280;50749;51.636;4.948;2023-02-02T02:02:29;102247.00;;;16.90;48.10
59190;BME280;50749;51.636;4.948;2023-02-02T02:04:56;102248.97;;;16.90;48.41
59190;BME280;50749;51.636;4.948;2023-02-02T02:07:22;102262.78;;;16.90;48.36
59190;BME280;50749;51.636;4.948;2023-02-02T02:09:48;102254.00;;;16.88;48.19
59190;BME280;50749;51.636;4.948;2023-02-02T02:12:15;102261.13;;;16.89;48.51
59190;BME280;50749;51.636;4.948;2023-02-02T02:14:44;102269.72;;;16.87;48.40
59190;BME280;50749;51.636;4.948;2023-02-02T02:17:52;102255.13;;;16.87;48.50
59190;BME280;50749;51.636;4.948;2023-02-02T02:20:49;102253.47;;;16.86;48.46
59190;BME280;50749;51.636;4.948;2023-02-02T02:23:43;102249.91;;;16.85;48.12
59190;BME280;50749;51.636;4.948;2023-02-02T02:32:06;102254.09;;;16.83;48.45
59190;BME280;50749;51.636;4.948;2023-02-02T02:39:51;102266.28;;;16.82;48.54
59190;BME280;50749;51.636;4.948;2023-02-02T02:42:23;102258.28;;;16.80;48.46
59190;BME280;50749;51.636;4.948;2023-02-02T02:44:52;102256.97;;;16.78;48.32
59190;BME280;50749;51.636;4.948;2023-02-02T02:47:19;102261.88;;;16.81;48.24
59190;BME280;50749;51.636;4.948;2023-02-02T02:49:48;102268.53;;;16.80;48.35
59190;BME280;50749;51.636;4.948;2023-02-02T02:52:14;102263.81;;;16.80;48.49
59190;BME280;50749;51.636;4.948;2023-02-02T02:54:46;102267.69;;;16.79;48.40
59190;BME280;50749;51.636;4.948;2023-02-02T02:59:58;102262.19;;;16.79;48.49
59190;BME280;50749;51.636;4.948;2023-02-02T03:08:36;102263.31;;;16.78;48.46
59190;BME280;50749;51.636;4.948;2023-02-02T03:11:07;102269.16;;;16.77;48.36
59190;BME280;50749;51.636;4.948;2023-02-02T03:13:34;102260.06;;;16.76;48.47
59190;BME280;50749;51.636;4.948;2023-02-02T03:16:00;102266.41;;;16.77;48.88
59190;BME280;50749;51.636;4.948;2023-02-02T03:18:28;102261.19;;;16.75;48.74
59190;BME280;50749;51.636;4.948;2023-02-02T03:20:55;102266.72;;;16.75;48.50
59190;BME280;50749;51.636;4.948;2023-02-02T03:23:22;102266.72;;;16.75;48.58
59190;BME280;50749;51.636;4.948;2023-02-02T03:25:48;102264.28;;;16.74;48.59
59190;BME280;50749;51.636;4.948;2023-02-02T03:28:14;102253.22;;;16.74;48.68
59190;BME280;50749;51.636;4.948;2023-02-02T03:30:41;102230.31;;;16.73;48.68
59190;BME280;50749;51.636;4.948;2023-02-02T03:33:09;102241.38;;;16.73;48.45
59190;BME280;50749;51.636;4.948;2023-02-02T03:35:35;102243.28;;;16.72;48.79
59190;BME280;50749;51.636;4.948;2023-02-02T03:38:01;102244.44;;;16.71;48.61
59190;BME280;50749;51.636;4.948;2023-02-02T03:40:27;102246.41;;;16.71;48.41
59190;BME280;50749;51.636;4.948;2023-02-02T03:42:53;102247.03;;;16.68;48.75
59190;BME280;50749;51.636;4.948;2023-02-02T03:45:20;102266.03;;;16.69;48.35
59190;BME280;50749;51.636;4.948;2023-02-02T03:47:46;102269.59;;;16.70;48.74
59190;BME280;50749;51.636;4.948;2023-02-02T03:50:12;102269.13;;;16.68;48.82
59190;BME280;50749;51.636;4.948;2023-02-02T03:52:38;102272.69;;;16.68;48.62
59190;BME280;50749;51.636;4.948;2023-02-02T03:55:04;102282.91;;;16.68;48.51
59190;BME280;50749;51.636;4.948;2023-02-02T03:57:30;102282.91;;;16.68;48.77
59190;BME280;50749;51.636;4.948;2023-02-02T03:59:56;102282.09;;;16.67;48.79
59190;BME280;50749;51.636;4.948;2023-02-02T04:02:22;102282.91;;;16.68;49.00
59190;BME280;50749;51.636;4.948;2023-02-02T04:04:48;102274.31;;;16.69;48.76
59190;BME280;50749;51.636;4.948;2023-02-02T04:07:14;102291.88;;;16.74;48.82
59190;BME280;50749;51.636;4.948;2023-02-02T04:09:40;102295.31;;;16.79;48.71
59190;BME280;50749;51.636;4.948;2023-02-02T04:12:06;102288.56;;;16.85;48.72
59190;BME280;50749;51.636;4.948;2023-02-02T04:14:32;102286.50;;;16.91;48.91
59190;BME280;50749;51.636;4.948;2023-02-02T04:16:58;102287.69;;;16.99;48.55
59190;BME280;50749;51.636;4.948;2023-02-02T04:19:24;102289.38;;;17.08;48.81
59190;BME280;50749;51.636;4.948;2023-02-02T04:21:49;102288.59;;;17.17;48.61
59190;BME280;50749;51.636;4.948;2023-02-02T04:24:15;102292.50;;;17.24;48.60
59190;BME280;50749;51.636;4.948;2023-02-02T04:26:41;102292.59;;;17.33;48.45
59190;BME280;50749;51.636;4.948;2023-02-02T04:29:08;102294.06;;;17.39;48.37
59190;BME280;50749;51.636;4.948;2023-02-02T04:31:33;102287.25;;;17.45;48.31
59190;BME280;50749;51.636;4.948;2023-02-02T04:33:59;102294.28;;;17.52;48.00
59190;BME280;50749;51.636;4.948;2023-02-02T04:36:26;102294.13;;;17.57;47.94
59190;BME280;50749;51.636;4.948;2023-02-02T04:38:52;102284.84;;;17.61;47.97
59190;BME280;50749;51.636;4.948;2023-02-02T04:41:19;102281.94;;;17.67;48.17
59190;BME280;50749;51.636;4.948;2023-02-02T04:43:45;102286.50;;;17.71;48.08
59190;BME280;50749;51.636;4.948;2023-02-02T04:46:11;102278.06;;;17.76;47.71
59190;BME280;50749;51.636;4.948;2023-02-02T04:48:38;102285.41;;;17.81;47.71
59190;BME280;50749;51.636;4.948;2023-02-02T04:51:08;102277.25;;;17.85;47.71
59190;BME280;50749;51.636;4.948;2023-02-02T04:53:34;102270.00;;;17.89;47.79
59190;BME280;50749;51.636;4.948;2023-02-02T04:56:11;102276.50;;;17.93;47.68
59190;BME280;50749;51.636;4.948;2023-02-02T04:58:37;102284.66;;;17.98;47.78
59190;BME280;50749;51.636;4.948;2023-02-02T05:01:11;102286.78;;;18.01;47.58
59190;BME280;50749;51.636;4.948;2023-02-02T05:03:38;102290.50;;;18.05;47.69
59190;BME280;50749;51.636;4.948;2023-02-02T05:06:04;102293.44;;;18.09;47.33
59190;BME280;50749;51.636;4.948;2023-02-02T05:08:30;102295.06;;;18.10;47.30
59190;BME280;50749;51.636;4.948;2023-02-02T05:10:56;102302.72;;;18.13;47.39
59190;BME280;50749;51.636;4.948;2023-02-02T05:13:22;102292.16;;;18.15;47.49
59190;BME280;50749;51.636;4.948;2023-02-02T05:15:48;102299.00;;;18.17;47.56
59190;BME280;50749;51.636;4.948;2023-02-02T05:18:14;102295.06;;;18.18;47.16
59190;BME280;50749;51.636;4.948;2023-02-02T05:20:40;102297.19;;;18.22;47.24
59190;BME280;50749;51.636;4.948;2023-02-02T05:23:06;102308.44;;;18.25;47.39
59190;BME280;50749;51.636;4.948;2023-02-02T05:25:31;102292.31;;;18.27;47.46
59190;BME280;50749;51.636;4.948;2023-02-02T05:27:57;102293.31;;;18.31;47.08
59190;BME280;50749;51.636;4.948;2023-02-02T05:30:23;102294.59;;;18.34;47.26
59190;BME280;50749;51.636;4.948;2023-02-02T05:32:49;102288.72;;;18.35;47.07
59190;BME280;50749;51.636;4.948;2023-02-02T05:35:15;102305.84;;;18.37;47.41
59190;BME280;50749;51.636;4.948;2023-02-02T05:37:41;102306.00;;;18.41;47.19
59190;BME280;50749;51.636;4.948;2023-02-02T05:40:08;102309.59;;;18.42;47.08
59190;BME280;50749;51.636;4.948;2023-02-02T05:42:34;102296.22;;;18.44;47.03
59190;BME280;50749;51.636;4.948;2023-02-02T05:45:01;102305.84;;;18.46;47.37
59190;BME280;50749;51.636;4.948;2023-02-02T05:47:27;102295.56;;;18.47;47.06
59190;BME280;50749;51.636;4.948;2023-02-02T05:49:52;102303.88;;;18.47;46.98
59190;BME280;50749;51.636;4.948;2023-02-02T05:52:20;102302.75;;;18.48;46.90
59190;BME280;50749;51.636;4.948;2023-02-02T05:54:46;102285.31;;;18.47;46.97
59190;BME280;50749;51.636;4.948;2023-02-02T05:57:12;102298.00;;;18.48;47.03
59190;BME280;50749;51.636;4.948;2023-02-02T05:59:38;102296.88;;;18.49;47.24
59190;BME280;50749;51.636;4.948;2023-02-02T06:02:04;102288.91;;;18.48;46.99
59190;BME280;50749;51.636;4.948;2023-02-02T06:04:30;102299.34;;;18.51;46.87
59190;BME280;50749;51.636;4.948;2023-02-02T06:06:56;102299.81;;;18.53;47.27
59190;BME280;50749;51.636;4.948;2023-02-02T06:09:21;102289.53;;;18.53;46.93
59190;BME280;50749;51.636;4.948;2023-02-02T06:11:48;102293.13;;;18.54;46.84
59190;BME280;50749;51.636;4.948;2023-02-02T06:14:14;102301.75;;;18.52;47.17
59190;BME280;50749;51.636;4.948;2023-02-02T06:16:40;102316.28;;;18.49;47.17
59190;BME280;50749;51.636;4.948;2023-02-02T06:19:06;102295.56;;;18.47;47.84
59190;BME280;50749;51.636;4.948;2023-02-02T06:21:32;102304.69;;;18.47;47.89
59190;BME280;50749;51.636;4.948;2023-02-02T06:23:58;102318.03;;;18.45;47.65
59190;BME280;50749;51.636;4.948;2023-02-02T06:26:25;102310.91;;;18.44;48.00
59190;BME280;50749;51.636;4.948;2023-02-02T06:28:52;102311.69;;;18.45;48.15
59190;BME280;50749;51.636;4.948;2023-02-02T06:31:19;102315.28;;;18.45;48.30
59190;BME280;50749;51.636;4.948;2023-02-02T06:33:55;102326.34;;;18.45;48.15
59190;BME280;50749;51.636;4.948;2023-02-02T06:36:23;102316.09;;;18.46;49.19
59190;BME280;50749;51.636;4.948;2023-02-02T06:38:50;102329.13;;;18.45;49.22
59190;BME280;50749;51.636;4.948;2023-02-02T06:41:17;102343.78;;;18.46;49.05
59190;BME280;50749;51.636;4.948;2023-02-02T06:43:47;102340.53;;;18.44;49.03
59190;BME280;50749;51.636;4.948;2023-02-02T06:46:14;102340.84;;;18.42;49.05
59190;BME280;50749;51.636;4.948;2023-02-02T06:48:39;102350.31;;;18.41;49.39
59190;BME280;50749;51.636;4.948;2023-02-02T06:51:06;102345.09;;;18.40;49.31
59190;BME280;50749;51.636;4.948;2023-02-02T06:53:32;102353.41;;;18.40;49.32
59190;BME280;50749;51.636;4.948;2023-02-02T06:56:01;102358.47;;;18.37;49.41
59190;BME280;50749;51.636;4.948;2023-02-02T06:58:28;102356.50;;;18.38;49.35
59190;BME280;50749;51.636;4.948;2023-02-02T07:00:54;102360.88;;;18.39;49.21
59190;BME280;50749;51.636;4.948;2023-02-02T07:03:20;102359.25;;;18.38;49.34
59190;BME280;50749;51.636;4.948;2023-02-02T07:05:49;102359.25;;;18.38;49.72
59190;BME280;50749;51.636;4.948;2023-02-02T07:08:15;102353.72;;;18.38;49.83
59190;BME280;50749;51.636;4.948;2023-02-02T07:10:41;102361.22;;;18.37;49.70
59190;BME280;50749;51.636;4.948;2023-02-02T07:13:08;102359.25;;;18.38;49.83
59190;BME280;50749;51.636;4.948;2023-02-02T07:15:38;102356.50;;;18.38;49.67
59190;BME280;50749;51.636;4.948;2023-02-02T07:18:04;102349.00;;;18.38;49.85
59190;BME280;50749;51.636;4.948;2023-02-02T07:20:30;102357.28;;;18.38;49.54
59190;BME280;50749;51.636;4.948;2023-02-02T07:22:56;102342.31;;;18.40;49.96
59190;BME280;50749;51.636;4.948;2023-02-02T07:25:22;102354.22;;;18.40;49.66
59190;BME280;50749;51.636;4.948;2023-02-02T07:27:52;102360.88;;;18.39;49.93
59190;BME280;50749;51.636;4.948;2023-02-02T07:30:18;102359.25;;;18.38;49.99
59190;BME280;50749;51.636;4.948;2023-02-02T07:32:48;102359.91;;;18.35;50.37
59190;BME280;50749;51.636;4.948;2023-02-02T07:35:15;102365.75;;;18.33;50.23
59190;BME280;50749;51.636;4.948;2023-02-02T07:37:40;102366.09;;;18.32;50.12
59190;BME280;50749;51.636;4.948;2023-02-02T07:40:08;102362.84;;;18.30;50.48
59190;BME280;50749;51.636;4.948;2023-02-02T07:42:33;102371.78;;;18.27;51.00
59190;BME280;50749;51.636;4.948;2023-02-02T07:44:59;102371.63;;;18.23;50.87
59190;BME280;50749;51.636;4.948;2023-02-02T07:47:25;102367.19;;;18.22;50.76
59190;BME280;50749;51.636;4.948;2023-02-02T07:49:51;102371.44;;;18.19;50.79
59190;BME280;50749;51.636;4.948;2023-02-02T07:52:17;102372.75;;;18.22;50.41
59190;BME280;50749;51.636;4.948;2023-02-02T07:54:43;102372.56;;;18.18;49.99
59190;BME280;50749;51.636;4.948;2023-02-02T07:57:09;102373.22;;;18.15;50.41
59190;BME280;50749;51.636;4.948;2023-02-02T07:59:38;102381.03;;;18.13;50.57
59190;BME280;50749;51.636;4.948;2023-02-02T08:02:03;102380.88;;;18.10;51.00
59190;BME280;50749;51.636;4.948;2023-02-02T08:04:30;102396.19;;;18.07;50.88
59190;BME280;50749;51.636;4.948;2023-02-02T08:06:57;102405.13;;;18.04;50.65
59190;BME280;50749;51.636;4.948;2023-02-02T08:09:23;102415.66;;;18.02;51.19
59190;BME280;50749;51.636;4.948;2023-02-02T08:11:49;102412.41;;;18.00;51.08
59190;BME280;50749;51.636;4.948;2023-02-02T08:14:15;102411.94;;;17.98;51.06
59190;BME280;50749;51.636;4.948;2023-02-02T08:16:41;102400.69;;;17.94;50.86
59190;BME280;50749;51.636;4.948;2023-02-02T08:19:09;102405.72;;;17.92;51.04
59190;BME280;50749;51.636;4.948;2023-02-02T08:21:36;102401.31;;;17.91;50.98
59190;BME280;50749;51.636;4.948;2023-02-02T08:24:02;102403.59;;;17.89;50.65
59190;BME280;50749;51.636;4.948;2023-02-02T08:26:30;102399.19;;;17.88;50.33
59190;BME280;50749;51.636;4.948;2023-02-02T08:28:58;102400.63;;;17.86;50.56
59190;BME280;50749;51.636;4.948;2023-02-02T08:31:30;102399.31;;;17.83;50.45
59190;BME280;50749;51.636;4.948;2023-02-02T08:33:57;102399.31;;;17.83;50.06
59190;BME280;50749;51.636;4.948;2023-02-02T08:36:25;102396.06;;;17.81;50.10
59190;BME280;50749;51.636;4.948;2023-02-02T08:38:51;102414.59;;;17.80;50.38
59190;BME280;50749;51.636;4.948;2023-02-02T08:41:20;102419.63;;;17.78;50.50
59190;BME280;50749;51.636;4.948;2023-02-02T08:43:47;102426.31;;;17.77;50.48
59190;BME280;50749;51.636;4.948;2023-02-02T08:46:15;102420.28;;;17.75;50.17
59190;BME280;50749;51.636;4.948;2023-02-02T08:48:42;102424.16;;;17.74;50.17
59190;BME280;50749;51.636;4.948;2023-02-02T08:51:10;102439.13;;;17.73;50.17
59190;BME280;50749;51.636;4.948;2023-02-02T08:53:36;102444.47;;;17.70;49.91
59190;BME280;50749;51.636;4.948;2023-02-02T08:56:04;102443.34;;;17.71;49.83
59190;BME280;50749;51.636;4.948;2023-02-02T08:58:32;102447.25;;;17.70;49.90
59190;BME280;50749;51.636;4.948;2023-02-02T09:01:12;102459.47;;;17.69;50.10
59190;BME280;50749;51.636;4.948;2023-02-02T09:03:39;102459.78;;;17.67;50.10
59190;BME280;50749;51.636;4.948;2023-02-02T09:06:06;102459.25;;;17.65;50.10
59190;BME280;50749;51.636;4.948;2023-02-02T09:08:32;102475.03;;;17.64;49.69
59190;BME280;50749;51.636;4.948;2023-02-02T09:11:10;102476.50;;;17.62;49.73
59190;BME280;50749;51.636;4.948;2023-02-02T09:13:37;102464.41;;;17.58;50.06
59190;BME280;50749;51.636;4.948;2023-02-02T09:16:06;102468.00;;;17.58;49.76
59190;BME280;50749;51.636;4.948;2023-02-02T09:18:33;102466.06;;;17.59;49.80
59190;BME280;50749;51.636;4.948;2023-02-02T09:21:00;102475.78;;;17.56;49.68
59190;BME280;50749;51.636;4.948;2023-02-02T09:23:31;102476.63;;;17.57;49.98
59190;BME280;50749;51.636;4.948;2023-02-02T09:25:57;102483.47;;;17.59;49.83
59190;BME280;50749;51.636;4.948;2023-02-02T09:28:23;102483.78;;;17.58;49.81
59190;BME280;50749;51.636;4.948;2023-02-02T09:30:48;102479.41;;;17.57;50.17
59190;BME280;50749;51.636;4.948;2023-02-02T09:33:14;102489.31;;;17.58;50.08
59190;BME280;50749;51.636;4.948;2023-02-02T09:35:40;102492.69;;;17.55;49.84
59190;BME280;50749;51.636;4.948;2023-02-02T09:38:06;102495.78;;;17.53;50.09
59190;BME280;50749;51.636;4.948;2023-02-02T09:40:33;102487.84;;;17.52;49.67
59190;BME280;50749;51.636;4.948;2023-02-02T09:43:16;102502.78;;;17.51;49.68
59190;BME280;50749;51.636;4.948;2023-02-02T09:51:12;102518.56;;;17.50;51.04
59190;BME280;50749;51.636;4.948;2023-02-02T09:53:48;102534.31;;;17.50;51.25
59190;BME280;50749;51.636;4.948;2023-02-02T09:56:32;102533.50;;;17.49;51.09
59190;BME280;50749;51.636;4.948;2023-02-02T09:59:00;102523.25;;;17.50;51.18
59190;BME280;50749;51.636;4.948;2023-02-02T10:01:31;102529.63;;;17.50;50.67
59190;BME280;50749;51.636;4.948;2023-02-02T10:04:13;102534.31;;;17.50;50.18
59190;BME280;50749;51.636;4.948;2023-02-02T10:06:47;102517.72;;;17.50;50.49
59190;BME280;50749;51.636;4.948;2023-02-02T10:09:19;102518.88;;;17.49;50.53
59190;BME280;50749;51.636;4.948;2023-02-02T10:19:47;102522.25;;;17.45;50.40
59190;BME280;50749;51.636;4.948;2023-02-02T10:22:20;102518.69;;;17.45;50.40
59190;BME280;50749;51.636;4.948;2023-02-02T10:24:48;102512.31;;;17.44;50.54
59190;BME280;50749;51.636;4.948;2023-02-02T10:27:16;102530.56;;;17.45;50.53
59190;BME280;50749;51.636;4.948;2023-02-02T10:29:57;102519.00;;;17.43;50.89
59190;BME280;50749;51.636;4.948;2023-02-02T10:33:28;102537.50;;;17.43;50.90
59190;BME280;50749;51.636;4.948;2023-02-02T10:35:39;102542.22;;;17.42;50.96
59190;BME280;50749;51.636;4.948;2023-02-02T10:41:28;102543.34;;;17.41;50.59
59190;BME280;50749;51.636;4.948;2023-02-02T10:46:39;102545.13;;;17.37;50.61
59190;BME280;50749;51.636;4.948;2023-02-02T10:51:48;102543.16;;;17.38;49.99
59190;BME280;50749;51.636;4.948;2023-02-02T10:54:28;102543.47;;;17.36;49.77
59190;BME280;50749;51.636;4.948;2023-02-02T10:57:01;102551.78;;;17.36;49.90
59190;BME280;50749;51.636;4.948;2023-02-02T10:59:31;102552.91;;;17.35;50.02
59190;BME280;50749;51.636;4.948;2023-02-02T11:01:58;102550.16;;;17.35;50.29
59190;BME280;50749;51.636;4.948;2023-02-02T11:04:24;102547.69;;;17.34;50.44
59190;BME280;50749;51.636;4.948;2023-02-02T11:07:10;102554.34;;;17.33;50.23
59190;BME280;50749;51.636;4.948;2023-02-02T11:09:44;102548.00;;;17.32;50.39
59190;BME280;50749;51.636;4.948;2023-02-02T11:12:33;102557.41;;;17.31;50.23
59190;BME280;50749;51.636;4.948;2023-02-02T11:15:05;102548.63;;;17.29;50.29
59190;BME280;50749;51.636;4.948;2023-02-02T11:17:32;102555.28;;;17.28;50.04
59190;BME280;50749;51.636;4.948;2023-02-02T11:19:59;102547.31;;;17.26;50.33
59190;BME280;50749;51.636;4.948;2023-02-02T11:22:36;102543.41;;;17.27;50.17
59190;BME280;50749;51.636;4.948;2023-02-02T11:25:04;102537.06;;;17.27;50.58
59190;BME280;50749;51.636;4.948;2023-02-02T11:27:39;102542.28;;;17.29;51.26
59190;BME280;50749;51.636;4.948;2023-02-02T11:30:26;102538.06;;;17.31;51.00
59190;BME280;50749;51.636;4.948;2023-02-02T11:32:53;102541.38;;;17.33;50.82
59190;BME280;50749;51.636;4.948;2023-02-02T11:35:25;102538.25;;;17.35;50.64
59190;BME280;50749;51.636;4.948;2023-02-02T11:37:57;102542.66;;;17.36;50.52
59190;BME280;50749;51.636;4.948;2023-02-02T11:42:57;102542.34;;;17.37;50.11
59190;BME280;50749;51.636;4.948;2023-02-02T11:45:36;102542.03;;;17.39;50.35
59190;BME280;50749;51.636;4.948;2023-02-02T11:48:16;102536.53;;;17.39;50.23
59190;BME280;50749;51.636;4.948;2023-02-02T11:50:49;102538.97;;;17.40;50.00
59190;BME280;50749;51.636;4.948;2023-02-02T11:55:50;102542.84;;;17.39;50.20
59190;BME280;50749;51.636;4.948;2023-02-02T11:58:23;102539.28;;;17.39;49.84
59190;BME280;50749;51.636;4.948;2023-02-02T12:03:57;102540.91;;;17.40;50.24
59190;BME280;50749;51.636;4.948;2023-02-02T12:06:34;102546.75;;;17.38;49.81
59190;BME280;50749;51.636;4.948;2023-02-02T12:09:10;102531.28;;;17.37;50.20
59190;BME280;50749;51.636;4.948;2023-02-02T12:16:55;102538.25;;;17.35;49.94
59190;BME280;50749;51.636;4.948;2023-02-02T12:22:02;102541.38;;;17.33;50.16
59190;BME280;50749;51.636;4.948;2023-02-02T12:24:34;102527.00;;;17.31;49.80
59190;BME280;50749;51.636;4.948;2023-02-02T12:36:00;102534.81;;;17.29;50.42
59190;BME280;50749;51.636;4.948;2023-02-02T12:38:28;102530.41;;;17.28;50.72
59190;BME280;50749;51.636;4.948;2023-02-02T12:41:11;102534.00;;;17.29;50.55
59190;BME280;50749;51.636;4.948;2023-02-02T12:43:49;102521.59;;;17.26;50.50
59190;BME280;50749;51.636;4.948;2023-02-02T12:46:22;102539.34;;;17.25;50.70
59190;BME280;50749;51.636;4.948;2023-02-02T12:50:12;102533.81;;;17.25;50.87
59190;BME280;50749;51.636;4.948;2023-02-02T13:03:37;102512.13;;;17.18;50.06
59190;BME280;50749;51.636;4.948;2023-02-02T13:09:02;102499.25;;;17.14;50.46
59190;BME280;50749;51.636;4.948;2023-02-02T13:11:40;102504.78;;;17.14;50.84
59190;BME280;50749;51.636;4.948;2023-02-02T13:14:15;102503.13;;;17.13;50.74
59190;BME280;50749;51.636;4.948;2023-02-02T13:16:45;102499.06;;;17.10;50.65
59190;BME280;50749;51.636;4.948;2023-02-02T13:19:33;102512.03;;;17.09;51.00
59190;BME280;50749;51.636;4.948;2023-02-02T13:22:01;102514.78;;;17.09;50.66
59190;BME280;50749;51.636;4.948;2023-02-02T13:24:30;102512.03;;;17.09;50.51
59190;BME280;50749;51.636;4.948;2023-02-02T13:27:00;102505.38;;;17.11;50.60
59190;BME280;50749;51.636;4.948;2023-02-02T13:29:38;102510.91;;;17.11;50.97
59190;BME280;50749;51.636;4.948;2023-02-02T13:35:03;102500.47;;;17.07;51.02
59190;BME280;50749;51.636;4.948;2023-02-02T13:37:49;102511.53;;;17.07;50.92
59190;BME280;50749;51.636;4.948;2023-02-02T13:40:25;102510.72;;;17.07;50.69
59190;BME280;50749;51.636;4.948;2023-02-02T13:42:53;102509.91;;;17.06;51.08
59190;BME280;50749;51.636;4.948;2023-02-02T13:45:37;102509.28;;;17.09;51.07
59190;BME280;50749;51.636;4.948;2023-02-02T13:56:15;102505.75;;;17.32;50.31
59190;BME280;50749;51.636;4.948;2023-02-02T13:58:54;102506.41;;;17.37;50.36
59190;BME280;50749;51.636;4.948;2023-02-02T14:01:25;102510.69;;;17.43;50.39
59190;BME280;50749;51.636;4.948;2023-02-02T14:03:55;102516.09;;;17.49;50.41
59190;BME280;50749;51.636;4.948;2023-02-02T14:06:23;102512.06;;;17.55;50.27
59190;BME280;50749;51.636;4.948;2023-02-02T14:08:55;102515.84;;;17.59;50.53
59190;BME280;50749;51.636;4.948;2023-02-02T14:11:30;102515.22;;;17.62;50.53
59190;BME280;50749;51.636;4.948;2023-02-02T14:13:58;102515.09;;;17.67;50.43
59190;BME280;50749;51.636;4.948;2023-02-02T14:16:49;102521.28;;;17.73;50.43
59190;BME280;50749;51.636;4.948;2023-02-02T14:22:02;102529.16;;;17.79;50.48
59190;BME280;50749;51.636;4.948;2023-02-02T14:26:56;102526.63;;;17.92;50.84
59190;BME280;50749;51.636;4.948;2023-02-02T14:32:02;102543.47;;;18.04;50.93
59190;BME280;50749;51.636;4.948;2023-02-02T14:34:38;102541.88;;;18.12;51.08
59190;BME280;50749;51.636;4.948;2023-02-02T14:45:38;102550.09;;;18.26;51.15
59190;BME280;50749;51.636;4.948;2023-02-02T14:56:14;102546.53;;;18.34;50.82
59190;BME280;50749;51.636;4.948;2023-02-02T14:58:43;102554.19;;;18.37;51.05
59190;BME280;50749;51.636;4.948;2023-02-02T15:06:26;102562.38;;;18.42;51.30
59190;BME280;50749;51.636;4.948;2023-02-02T15:20:11;102554.28;;;18.54;51.31
59190;BME280;50749;51.636;4.948;2023-02-02T15:25:20;102560.00;;;18.58;51.41